Terminal Aerodrome Forecast
Issued by NWS

Home | Current Version | Previous Version | Text Only | Print | Product List | Glossary On
Versions: 1 2 3 4 5 6 7 8 9 10 11 12 13 14 15 16 17 18 19 20 21 22 23 24 25 26 27 28 29 30 31 32 33 34 35 36 37 38 39 40 41 42 43 44 45
000
FTUS43 KMKX 251446 AAA
TAFENW
TAF AMD
KENW 251446Z 2515/2612 22007KT P6SM VCSH SCT050 BKN250
     FM251900 18011KT P6SM SCT100 BKN200
     FM252300 18010KT P6SM VCTS BKN200CB
     FM260600 19010KT 6SM SHRA BKN090
     FM260900 22009KT P6SM BKN025=

USA.gov is the U.S. government's official web portal to all federal, state and local government web resources and services.